sensor_id;sensor_type;location;lat;lon;timestamp;temperature;humidity
28614;DHT22;15806;53.548;9.964;2023-02-08T05:04:04;-1.20;99.90
28614;DHT22;15806;53.548;9.964;2023-02-08T05:05:45;-1.30;99.90
28614;DHT22;15806;53.548;9.964;2023-02-08T05:07:26;-1.20;99.90
28614;DHT22;15806;53.548;9.964;2023-02-08T05:09:08;-1.10;99.90
28614;DHT22;15806;53.548;9.964;2023-02-08T05:10:48;-1.10;99.90
28614;DHT22;15806;53.548;9.964;2023-02-08T05:12:29;-1.10;99.90
28614;DHT22;15806;53.548;9.964;2023-02-08T05:14:09;-1.10;99.90
28614;DHT22;15806;53.548;9.964;2023-02-08T05:15:50;-1.10;99.90
28614;DHT22;15806;53.548;9.964;2023-02-08T05:17:30;-1.20;99.90
28614;DHT22;15806;53.548;9.964;2023-02-08T05:19:11;-1.20;99.90
28614;DHT22;15806;53.548;9.964;2023-02-08T05:20:59;-1.30;99.90
28614;DHT22;15806;53.548;9.964;2023-02-08T05:22:40;-1.50;99.90
28614;DHT22;15806;53.548;9.964;2023-02-08T05:24:20;-1.50;99.90
28614;DHT22;15806;53.548;9.964;2023-02-08T05:26:05;-1.40;99.90
28614;DHT22;15806;53.548;9.964;2023-02-08T05:27:47;-1.50;99.90
28614;DHT22;15806;53.548;9.964;2023-02-08T05:29:27;-1.60;99.90
28614;DHT22;15806;53.548;9.964;2023-02-08T05:31:19;-1.70;99.90
28614;DHT22;15806;53.548;9.964;2023-02-08T05:33:00;-1.60;99.90
28614;DHT22;15806;53.548;9.964;2023-02-08T05:34:41;-1.60;99.90
28614;DHT22;15806;53.548;9.964;2023-02-08T05:36:22;-1.70;99.90
28614;DHT22;15806;53.548;9.964;2023-02-08T05:38:02;-1.70;99.90
28614;DHT22;15806;53.548;9.964;2023-02-08T05:39:43;-1.70;99.90
28614;DHT22;15806;53.548;9.964;2023-02-08T05:41:23;-1.80;99.90
28614;DHT22;15806;53.548;9.964;2023-02-08T05:43:04;-1.70;99.90
28614;DHT22;15806;53.548;9.964;2023-02-08T05:44:44;-1.60;99.90
28614;DHT22;15806;53.548;9.964;2023-02-08T05:46:25;-1.80;99.90
28614;DHT22;15806;53.548;9.964;2023-02-08T05:48:05;-1.80;99.90
28614;DHT22;15806;53.548;9.964;2023-02-08T05:49:47;-1.90;99.90
28614;DHT22;15806;53.548;9.964;2023-02-08T05:51:28;-1.90;99.90
28614;DHT22;15806;53.548;9.964;2023-02-08T05:53:08;-1.80;99.90
28614;DHT22;15806;53.548;9.964;2023-02-08T05:54:49;-1.90;99.90
28614;DHT22;15806;53.548;9.964;2023-02-08T05:56:31;-1.80;99.90
28614;DHT22;15806;53.548;9.964;2023-02-08T05:58:11;-1.80;99.90
28614;DHT22;15806;53.548;9.964;2023-02-08T05:59:52;-1.80;99.90
28614;DHT22;15806;53.548;9.964;2023-02-08T06:01:32;-1.80;99.90
28614;DHT22;15806;53.548;9.964;2023-02-08T06:03:13;-1.80;99.90
28614;DHT22;15806;53.548;9.964;2023-02-08T06:04:53;-1.80;99.90
28614;DHT22;15806;53.548;9.964;2023-02-08T06:06:35;-1.80;99.90
28614;DHT22;15806;53.548;9.964;2023-02-08T06:08:16;-1.90;99.90
28614;DHT22;15806;53.548;9.964;2023-02-08T06:09:56;-1.90;99.90
28614;DHT22;15806;53.548;9.964;2023-02-08T06:11:37;-1.90;99.90
28614;DHT22;15806;53.548;9.964;2023-02-08T06:13:17;-1.90;99.90
28614;DHT22;15806;53.548;9.964;2023-02-08T06:14:58;-1.90;99.90
28614;DHT22;15806;53.548;9.964;2023-02-08T06:16:38;-1.80;99.90
28614;DHT22;15806;53.548;9.964;2023-02-08T06:18:19;-1.80;99.90
28614;DHT22;15806;53.548;9.964;2023-02-08T06:20:00;-1.80;99.90
28614;DHT22;15806;53.548;9.964;2023-02-08T06:21:42;-1.80;99.90
28614;DHT22;15806;53.548;9.964;2023-02-08T06:23:23;-1.80;99.90
28614;DHT22;15806;53.548;9.964;2023-02-08T06:25:04;-1.90;99.90
28614;DHT22;15806;53.548;9.964;2023-02-08T06:26:44;-1.70;99.90
28614;DHT22;15806;53.548;9.964;2023-02-08T06:28:25;-1.60;99.90
28614;DHT22;15806;53.548;9.964;2023-02-08T06:30:06;-1.60;99.90
28614;DHT22;15806;53.548;9.964;2023-02-08T06:31:46;-1.70;99.90
28614;DHT22;15806;53.548;9.964;2023-02-08T06:33:27;-1.70;99.90
28614;DHT22;15806;53.548;9.964;2023-02-08T06:35:08;-1.70;99.90
28614;DHT22;15806;53.548;9.964;2023-02-08T06:36:48;-1.70;99.90
28614;DHT22;15806;53.548;9.964;2023-02-08T06:38:29;-1.70;99.90
28614;DHT22;15806;53.548;9.964;2023-02-08T06:40:09;-1.80;99.90
28614;DHT22;15806;53.548;9.964;2023-02-08T06:41:50;-1.80;99.90
28614;DHT22;15806;53.548;9.964;2023-02-08T06:43:31;-1.70;99.90
28614;DHT22;15806;53.548;9.964;2023-02-08T06:45:11;-1.80;99.90
28614;DHT22;15806;53.548;9.964;2023-02-08T06:46:52;-1.90;99.90
28614;DHT22;15806;53.548;9.964;2023-02-08T06:48:33;-1.70;99.90
28614;DHT22;15806;53.548;9.964;2023-02-08T13:44:59;6.10;99.90
28614;DHT22;15806;53.548;9.964;2023-02-08T13:46:48;5.90;99.90
28614;DHT22;15806;53.548;9.964;2023-02-08T13:48:42;5.70;99.90
28614;DHT22;15806;53.548;9.964;2023-02-08T13:54:13;5.50;1.00
28614;DHT22;15806;53.548;9.964;2023-02-08T13:55:58;5.60;1.00
28614;DHT22;15806;53.548;9.964;2023-02-08T13:57:53;5.60;1.00
28614;DHT22;15806;53.548;9.964;2023-02-08T13:59:37;5.50;1.00
28614;DHT22;15806;53.548;9.964;2023-02-08T14:01:20;5.60;1.00
28614;DHT22;15806;53.548;9.964;2023-02-08T14:09:04;5.50;99.90
28614;DHT22;15806;53.548;9.964;2023-02-08T14:12:49;5.40;99.90
28614;DHT22;15806;53.548;9.964;2023-02-08T14:14:35;5.50;99.90
28614;DHT22;15806;53.548;9.964;2023-02-08T14:16:32;5.70;99.90
28614;DHT22;15806;53.548;9.964;2023-02-08T14:18:23;5.70;99.90
28614;DHT22;15806;53.548;9.964;2023-02-08T14:20:06;5.60;99.90
28614;DHT22;15806;53.548;9.964;2023-02-08T14:23:59;5.70;99.90
28614;DHT22;15806;53.548;9.964;2023-02-08T14:25:42;5.70;99.90
28614;DHT22;15806;53.548;9.964;2023-02-08T14:27:30;5.60;99.90
28614;DHT22;15806;53.548;9.964;2023-02-08T14:29:23;5.70;99.90
28614;DHT22;15806;53.548;9.964;2023-02-08T14:31:09;5.70;99.90
28614;DHT22;15806;53.548;9.964;2023-02-08T14:35:08;5.70;99.90
28614;DHT22;15806;53.548;9.964;2023-02-08T14:37:05;5.70;99.90
28614;DHT22;15806;53.548;9.964;2023-02-08T14:39:23;5.70;1.00
28614;DHT22;15806;53.548;9.964;2023-02-08T14:41:04;5.60;99.90
28614;DHT22;15806;53.548;9.964;2023-02-08T14:45:00;5.60;1.00
28614;DHT22;15806;53.548;9.964;2023-02-08T14:46:44;5.60;1.00
28614;DHT22;15806;53.548;9.964;2023-02-08T14:48:41;5.60;1.00
28614;DHT22;15806;53.548;9.964;2023-02-08T14:50:27;5.60;1.00
28614;DHT22;15806;53.548;9.964;2023-02-08T14:52:23;5.50;1.00
28614;DHT22;15806;53.548;9.964;2023-02-08T14:56:44;5.60;1.00
28614;DHT22;15806;53.548;9.964;2023-02-08T14:58:32;5.60;1.00
28614;DHT22;15806;53.548;9.964;2023-02-08T15:00:20;5.60;1.00
28614;DHT22;15806;53.548;9.964;2023-02-08T15:02:13;5.50;1.00
28614;DHT22;15806;53.548;9.964;2023-02-08T15:03:57;5.50;1.00
28614;DHT22;15806;53.548;9.964;2023-02-08T15:05:45;5.40;1.00
28614;DHT22;15806;53.548;9.964;2023-02-08T15:07:34;5.30;1.00
28614;DHT22;15806;53.548;9.964;2023-02-08T15:09:30;5.30;1.00
28614;DHT22;15806;53.548;9.964;2023-02-08T15:11:31;5.30;1.00
28614;DHT22;15806;53.548;9.964;2023-02-08T15:13:19;5.20;1.00
28614;DHT22;15806;53.548;9.964;2023-02-08T15:15:01;5.10;1.00
28614;DHT22;15806;53.548;9.964;2023-02-08T15:16:43;5.00;1.00
28614;DHT22;15806;53.548;9.964;2023-02-08T15:18:27;4.90;1.00
28614;DHT22;15806;53.548;9.964;2023-02-08T15:20:30;4.80;1.00
28614;DHT22;15806;53.548;9.964;2023-02-08T15:24:16;4.80;1.00
28614;DHT22;15806;53.548;9.964;2023-02-08T15:26:19;4.80;1.00
28614;DHT22;15806;53.548;9.964;2023-02-08T15:28:02;4.80;1.00
28614;DHT22;15806;53.548;9.964;2023-02-08T15:29:43;4.70;1.00
28614;DHT22;15806;53.548;9.964;2023-02-08T15:31:30;4.70;1.00
28614;DHT22;15806;53.548;9.964;2023-02-08T15:33:15;4.70;1.00
28614;DHT22;15806;53.548;9.964;2023-02-08T15:35:01;4.60;1.00
28614;DHT22;15806;53.548;9.964;2023-02-08T15:36:51;4.50;1.00
28614;DHT22;15806;53.548;9.964;2023-02-08T15:38:34;4.50;1.00
28614;DHT22;15806;53.548;9.964;2023-02-08T15:40:31;4.50;1.00
28614;DHT22;15806;53.548;9.964;2023-02-08T15:42:19;4.50;1.00
28614;DHT22;15806;53.548;9.964;2023-02-08T15:44:22;4.40;1.00
28614;DHT22;15806;53.548;9.964;2023-02-08T15:46:05;4.40;1.00
28614;DHT22;15806;53.548;9.964;2023-02-08T15:47:46;4.40;1.00
28614;DHT22;15806;53.548;9.964;2023-02-08T15:49:31;4.40;1.00
28614;DHT22;15806;53.548;9.964;2023-02-08T15:51:14;4.40;1.00
28614;DHT22;15806;53.548;9.964;2023-02-08T15:52:58;4.40;1.00
28614;DHT22;15806;53.548;9.964;2023-02-08T15:54:39;4.40;1.00
28614;DHT22;15806;53.548;9.964;2023-02-08T15:56:26;4.40;1.00
28614;DHT22;15806;53.548;9.964;2023-02-08T16:00:00;4.40;16.40
28614;DHT22;15806;53.548;9.964;2023-02-08T16:01:45;4.40;17.10
28614;DHT22;15806;53.548;9.964;2023-02-08T16:03:27;4.30;41.30
28614;DHT22;15806;53.548;9.964;2023-02-08T16:05:51;4.30;43.50
28614;DHT22;15806;53.548;9.964;2023-02-08T16:07:36;4.30;45.00
28614;DHT22;15806;53.548;9.964;2023-02-08T16:09:20;4.30;54.80
28614;DHT22;15806;53.548;9.964;2023-02-08T16:12:52;4.20;99.90
28614;DHT22;15806;53.548;9.964;2023-02-08T16:14:34;4.20;99.30
28614;DHT22;15806;53.548;9.964;2023-02-08T16:20:27;4.10;99.90
28614;DHT22;15806;53.548;9.964;2023-02-08T16:25:50;4.00;99.90
28614;DHT22;15806;53.548;9.964;2023-02-08T16:27:31;4.00;99.90
28614;DHT22;15806;53.548;9.964;2023-02-08T16:31:02;3.90;99.90
28614;DHT22;15806;53.548;9.964;2023-02-08T16:32:43;3.80;99.90
28614;DHT22;15806;53.548;9.964;2023-02-08T16:34:23;3.80;99.90
28614;DHT22;15806;53.548;9.964;2023-02-08T16:36:04;3.80;99.90
28614;DHT22;15806;53.548;9.964;2023-02-08T16:37:45;3.80;99.90
28614;DHT22;15806;53.548;9.964;2023-02-08T16:41:57;3.70;99.90
28614;DHT22;15806;53.548;9.964;2023-02-08T16:43:39;3.70;99.90
28614;DHT22;15806;53.548;9.964;2023-02-08T16:45:20;3.70;99.90
28614;DHT22;15806;53.548;9.964;2023-02-08T16:47:22;3.70;99.90
28614;DHT22;15806;53.548;9.964;2023-02-08T16:49:02;3.60;99.90
28614;DHT22;15806;53.548;9.964;2023-02-08T16:50:42;3.60;99.90
28614;DHT22;15806;53.548;9.964;2023-02-08T16:52:23;3.60;99.90
28614;DHT22;15806;53.548;9.964;2023-02-08T16:54:04;3.60;99.90
28614;DHT22;15806;53.548;9.964;2023-02-08T16:55:45;3.60;99.90
28614;DHT22;15806;53.548;9.964;2023-02-08T16:57:46;3.50;99.90
28614;DHT22;15806;53.548;9.964;2023-02-08T16:59:27;3.50;99.90
28614;DHT22;15806;53.548;9.964;2023-02-08T17:01:11;3.50;99.90
28614;DHT22;15806;53.548;9.964;2023-02-08T17:02:53;3.40;99.90
28614;DHT22;15806;53.548;9.964;2023-02-08T17:04:34;3.40;99.90
28614;DHT22;15806;53.548;9.964;2023-02-08T17:06:28;3.30;99.90
28614;DHT22;15806;53.548;9.964;2023-02-08T17:08:19;3.30;99.90
28614;DHT22;15806;53.548;9.964;2023-02-08T17:10:00;3.30;99.90
28614;DHT22;15806;53.548;9.964;2023-02-08T17:11:41;3.20;99.90
28614;DHT22;15806;53.548;9.964;2023-02-08T17:13:21;3.20;99.90
28614;DHT22;15806;53.548;9.964;2023-02-08T17:15:03;3.20;99.90
28614;DHT22;15806;53.548;9.964;2023-02-08T17:16:44;3.20;99.90
28614;DHT22;15806;53.548;9.964;2023-02-08T17:18:25;3.10;99.90
28614;DHT22;15806;53.548;9.964;2023-02-08T17:20:18;3.10;1.00
28614;DHT22;15806;53.548;9.964;2023-02-08T17:21:59;3.10;1.00
28614;DHT22;15806;53.548;9.964;2023-02-08T17:23:40;3.10;1.00
28614;DHT22;15806;53.548;9.964;2023-02-08T17:25:21;3.00;1.00
28614;DHT22;15806;53.548;9.964;2023-02-08T17:27:02;3.00;1.00
28614;DHT22;15806;53.548;9.964;2023-02-08T17:28:43;3.00;1.00
28614;DHT22;15806;53.548;9.964;2023-02-08T17:30:25;3.10;1.00
28614;DHT22;15806;53.548;9.964;2023-02-08T17:32:06;2.90;1.00
28614;DHT22;15806;53.548;9.964;2023-02-08T17:33:46;2.90;1.00
28614;DHT22;15806;53.548;9.964;2023-02-08T17:35:28;2.90;1.00
28614;DHT22;15806;53.548;9.964;2023-02-08T17:37:08;2.90;1.00
28614;DHT22;15806;53.548;9.964;2023-02-08T17:38:49;2.80;1.00
28614;DHT22;15806;53.548;9.964;2023-02-08T17:40:35;2.70;1.00
28614;DHT22;15806;53.548;9.964;2023-02-08T17:42:16;2.70;1.00
28614;DHT22;15806;53.548;9.964;2023-02-08T17:43:56;2.70;1.00
28614;DHT22;15806;53.548;9.964;2023-02-08T17:45:39;2.60;1.00
28614;DHT22;15806;53.548;9.964;2023-02-08T17:47:20;2.60;1.00
28614;DHT22;15806;53.548;9.964;2023-02-08T17:49:00;2.60;1.00
28614;DHT22;15806;53.548;9.964;2023-02-08T17:50:42;2.60;1.00
28614;DHT22;15806;53.548;9.964;2023-02-08T17:52:23;2.50;1.00
28614;DHT22;15806;53.548;9.964;2023-02-08T17:54:04;2.60;1.00
28614;DHT22;15806;53.548;9.964;2023-02-08T17:55:44;2.50;1.00
28614;DHT22;15806;53.548;9.964;2023-02-08T17:57:25;2.50;1.00
28614;DHT22;15806;53.548;9.964;2023-02-08T17:59:06;2.40;1.00
28614;DHT22;15806;53.548;9.964;2023-02-08T18:00:46;2.40;1.00
28614;DHT22;15806;53.548;9.964;2023-02-08T18:02:27;2.40;1.00
28614;DHT22;15806;53.548;9.964;2023-02-08T18:04:07;2.30;1.00
28614;DHT22;15806;53.548;9.964;2023-02-08T18:05:57;2.30;1.00
28614;DHT22;15806;53.548;9.964;2023-02-08T18:07:38;2.30;1.00
28614;DHT22;15806;53.548;9.964;2023-02-08T18:09:18;2.30;1.00
28614;DHT22;15806;53.548;9.964;2023-02-08T18:11:07;2.30;1.00
28614;DHT22;15806;53.548;9.964;2023-02-08T18:12:48;2.20;1.00
28614;DHT22;15806;53.548;9.964;2023-02-08T18:14:28;2.30;14.50
28614;DHT22;15806;53.548;9.964;2023-02-08T18:16:24;2.20;21.10
28614;DHT22;15806;53.548;9.964;2023-02-08T18:18:06;2.10;47.10
28614;DHT22;15806;53.548;9.964;2023-02-08T18:19:47;2.10;99.90
28614;DHT22;15806;53.548;9.964;2023-02-08T18:21:27;2.10;99.90
28614;DHT22;15806;53.548;9.964;2023-02-08T18:23:08;2.10;99.90
28614;DHT22;15806;53.548;9.964;2023-02-08T18:24:48;2.00;99.90
28614;DHT22;15806;53.548;9.964;2023-02-08T18:26:29;2.00;99.90
28614;DHT22;15806;53.548;9.964;2023-02-08T18:28:10;2.00;99.90
28614;DHT22;15806;53.548;9.964;2023-02-08T18:29:50;2.00;99.90
28614;DHT22;15806;53.548;9.964;2023-02-08T18:31:31;1.90;99.90
28614;DHT22;15806;53.548;9.964;2023-02-08T18:33:12;1.90;99.90
28614;DHT22;15806;53.548;9.964;2023-02-08T18:34:53;1.90;99.90
28614;DHT22;15806;53.548;9.964;2023-02-08T18:36:35;1.80;99.90
28614;DHT22;15806;53.548;9.964;2023-02-08T18:38:16;1.80;99.90
28614;DHT22;15806;53.548;9.964;2023-02-08T18:39:57;1.80;99.90
28614;DHT22;15806;53.548;9.964;2023-02-08T18:41:38;1.80;99.90
28614;DHT22;15806;53.548;9.964;2023-02-08T18:43:19;1.80;99.90
28614;DHT22;15806;53.548;9.964;2023-02-08T18:44:59;1.80;99.90
28614;DHT22;15806;53.548;9.964;2023-02-08T18:46:40;1.80;99.90
28614;DHT22;15806;53.548;9.964;2023-02-08T18:48:22;1.70;99.90
28614;DHT22;15806;53.548;9.964;2023-02-08T18:50:04;1.70;99.90
28614;DHT22;15806;53.548;9.964;2023-02-08T18:51:46;1.60;99.90
28614;DHT22;15806;53.548;9.964;2023-02-08T18:53:30;1.60;99.90
28614;DHT22;15806;53.548;9.964;2023-02-08T18:55:11;1.70;1.00
28614;DHT22;15806;53.548;9.964;2023-02-08T18:56:52;1.60;99.90
28614;DHT22;15806;53.548;9.964;2023-02-08T18:58:33;1.60;99.90
28614;DHT22;15806;53.548;9.964;2023-02-08T19:00:14;1.60;99.90
28614;DHT22;15806;53.548;9.964;2023-02-08T19:01:56;1.70;1.00
28614;DHT22;15806;53.548;9.964;2023-02-08T19:03:37;1.60;1.00
28614;DHT22;15806;53.548;9.964;2023-02-08T19:05:18;1.60;1.00
28614;DHT22;15806;53.548;9.964;2023-02-08T19:06:58;1.50;1.00
28614;DHT22;15806;53.548;9.964;2023-02-08T19:08:41;1.50;1.00
28614;DHT22;15806;53.548;9.964;2023-02-08T19:10:21;1.50;1.00
28614;DHT22;15806;53.548;9.964;2023-02-08T19:12:02;1.50;1.00
28614;DHT22;15806;53.548;9.964;2023-02-08T19:13:43;1.50;1.00
28614;DHT22;15806;53.548;9.964;2023-02-08T19:15:23;1.40;1.00
28614;DHT22;15806;53.548;9.964;2023-02-08T19:17:04;1.50;1.00
28614;DHT22;15806;53.548;9.964;2023-02-08T19:18:45;1.50;1.00
28614;DHT22;15806;53.548;9.964;2023-02-08T19:20:25;1.40;1.00
28614;DHT22;15806;53.548;9.964;2023-02-08T19:22:06;1.30;1.00
28614;DHT22;15806;53.548;9.964;2023-02-08T19:23:48;1.30;1.00
28614;DHT22;15806;53.548;9.964;2023-02-08T19:25:29;1.20;1.00
28614;DHT22;15806;53.548;9.964;2023-02-08T19:27:10;1.30;1.00
28614;DHT22;15806;53.548;9.964;2023-02-08T19:28:52;1.30;1.00
28614;DHT22;15806;53.548;9.964;2023-02-08T19:30:33;1.20;1.00
28614;DHT22;15806;53.548;9.964;2023-02-08T19:32:13;1.20;1.00
28614;DHT22;15806;53.548;9.964;2023-02-08T19:33:57;1.20;1.00
28614;DHT22;15806;53.548;9.964;2023-02-08T19:35:38;1.20;1.00
28614;DHT22;15806;53.548;9.964;2023-02-08T19:37:18;1.10;1.00
28614;DHT22;15806;53.548;9.964;2023-02-08T19:38:59;1.10;1.00
28614;DHT22;15806;53.548;9.964;2023-02-08T19:40:40;1.10;1.00
28614;DHT22;15806;53.548;9.964;2023-02-08T19:42:20;1.20;1.00
28614;DHT22;15806;53.548;9.964;2023-02-08T19:44:02;1.10;1.00
28614;DHT22;15806;53.548;9.964;2023-02-08T19:45:43;1.00;1.00
28614;DHT22;15806;53.548;9.964;2023-02-08T19:47:24;1.00;1.00
28614;DHT22;15806;53.548;9.964;2023-02-08T19:49:05;1.00;1.00
28614;DHT22;15806;53.548;9.964;2023-02-08T19:50:56;1.00;1.00
28614;DHT22;15806;53.548;9.964;2023-02-08T19:52:36;1.00;1.00
28614;DHT22;15806;53.548;9.964;2023-02-08T19:54:18;1.00;1.00
28614;DHT22;15806;53.548;9.964;2023-02-08T19:56:04;0.90;1.00
28614;DHT22;15806;53.548;9.964;2023-02-08T19:57:48;1.00;99.90
28614;DHT22;15806;53.548;9.964;2023-02-08T19:59:29;0.90;99.90
28614;DHT22;15806;53.548;9.964;2023-02-08T20:01:20;0.90;99.90
28614;DHT22;15806;53.548;9.964;2023-02-08T20:03:00;0.90;99.90
28614;DHT22;15806;53.548;9.964;2023-02-08T20:04:41;0.90;99.90
28614;DHT22;15806;53.548;9.964;2023-02-08T20:06:27;0.90;99.90
28614;DHT22;15806;53.548;9.964;2023-02-08T20:08:08;0.80;99.90
28614;DHT22;15806;53.548;9.964;2023-02-08T20:09:49;0.80;99.90
28614;DHT22;15806;53.548;9.964;2023-02-08T20:11:31;0.80;99.90
28614;DHT22;15806;53.548;9.964;2023-02-08T20:13:13;0.70;99.90
28614;DHT22;15806;53.548;9.964;2023-02-08T20:14:54;0.70;99.90
28614;DHT22;15806;53.548;9.964;2023-02-08T20:16:35;0.70;99.90
28614;DHT22;15806;53.548;9.964;2023-02-08T20:18:15;0.60;99.90
28614;DHT22;15806;53.548;9.964;2023-02-08T20:19:56;0.70;99.90
28614;DHT22;15806;53.548;9.964;2023-02-08T20:21:39;0.70;99.90
28614;DHT22;15806;53.548;9.964;2023-02-08T20:23:20;0.70;99.90
28614;DHT22;15806;53.548;9.964;2023-02-08T20:25:01;0.70;99.90
28614;DHT22;15806;53.548;9.964;2023-02-08T20:26:44;0.60;99.90
28614;DHT22;15806;53.548;9.964;2023-02-08T20:28:25;0.60;99.90
28614;DHT22;15806;53.548;9.964;2023-02-08T20:30:08;0.60;99.90
28614;DHT22;15806;53.548;9.964;2023-02-08T20:31:49;0.50;99.90
28614;DHT22;15806;53.548;9.964;2023-02-08T20:33:29;0.50;99.90
28614;DHT22;15806;53.548;9.964;2023-02-08T20:35:10;0.40;99.90
28614;DHT22;15806;53.548;9.964;2023-02-08T20:36:50;0.40;1.00
28614;DHT22;15806;53.548;9.964;2023-02-08T20:38:31;0.40;1.00
28614;DHT22;15806;53.548;9.964;2023-02-08T20:40:13;0.40;1.00
28614;DHT22;15806;53.548;9.964;2023-02-08T20:41:53;0.40;1.00
28614;DHT22;15806;53.548;9.964;2023-02-08T20:43:34;0.40;1.00
28614;DHT22;15806;53.548;9.964;2023-02-08T20:45:15;0.30;1.00
28614;DHT22;15806;53.548;9.964;2023-02-08T20:46:55;0.30;1.00
28614;DHT22;15806;53.548;9.964;2023-02-08T20:48:36;0.40;85.20
28614;DHT22;15806;53.548;9.964;2023-02-08T20:50:17;0.40;99.90
28614;DHT22;15806;53.548;9.964;2023-02-08T20:51:57;0.40;99.90
28614;DHT22;15806;53.548;9.964;2023-02-08T20:53:39;0.30;38.70
28614;DHT22;15806;53.548;9.964;2023-02-08T20:55:20;0.40;81.10
28614;DHT22;15806;53.548;9.964;2023-02-08T20:57:02;0.30;99.90
28614;DHT22;15806;53.548;9.964;2023-02-08T20:58:43;0.30;99.90
28614;DHT22;15806;53.548;9.964;2023-02-08T21:00:23;0.30;81.90
28614;DHT22;15806;53.548;9.964;2023-02-08T21:02:04;0.30;99.90
28614;DHT22;15806;53.548;9.964;2023-02-08T21:03:44;0.30;98.80
28614;DHT22;15806;53.548;9.964;2023-02-08T21:05:25;0.20;99.90
28614;DHT22;15806;53.548;9.964;2023-02-08T21:07:06;0.20;99.90
28614;DHT22;15806;53.548;9.964;2023-02-08T21:08:48;0.30;99.90
28614;DHT22;15806;53.548;9.964;2023-02-08T21:10:28;0.30;60.30
28614;DHT22;15806;53.548;9.964;2023-02-08T21:12:09;0.20;86.90
28614;DHT22;15806;53.548;9.964;2023-02-08T21:13:50;0.20;99.90
28614;DHT22;15806;53.548;9.964;2023-02-08T21:15:30;0.20;99.90
28614;DHT22;15806;53.548;9.964;2023-02-08T21:17:11;0.10;99.90
28614;DHT22;15806;53.548;9.964;2023-02-08T21:18:52;0.10;99.90
28614;DHT22;15806;53.548;9.964;2023-02-08T21:20:35;0.20;99.90
28614;DHT22;15806;53.548;9.964;2023-02-08T21:22:15;0.20;99.90
28614;DHT22;15806;53.548;9.964;2023-02-08T21:23:56;0.10;99.90
28614;DHT22;15806;53.548;9.964;2023-02-08T21:25:39;0.00;36.30
28614;DHT22;15806;53.548;9.964;2023-02-08T21:27:20;0.00;99.90
28614;DHT22;15806;53.548;9.964;2023-02-08T21:29:00;0.10;99.90
28614;DHT22;15806;53.548;9.964;2023-02-08T21:30:41;0.10;99.90
28614;DHT22;15806;53.548;9.964;2023-02-08T21:32:21;0.00;99.90
28614;DHT22;15806;53.548;9.964;2023-02-08T21:34:02;0.00;99.90
28614;DHT22;15806;53.548;9.964;2023-02-08T21:35:43;0.00;99.90
28614;DHT22;15806;53.548;9.964;2023-02-08T21:37:23;0.00;99.90
28614;DHT22;15806;53.548;9.964;2023-02-08T21:39:04;-0.10;99.90
28614;DHT22;15806;53.548;9.964;2023-02-08T21:40:45;-0.10;99.90
28614;DHT22;15806;53.548;9.964;2023-02-08T21:42:25;-0.10;99.90
28614;DHT22;15806;53.548;9.964;2023-02-08T21:44:06;0.00;99.90
28614;DHT22;15806;53.548;9.964;2023-02-08T21:45:46;-0.10;99.90
28614;DHT22;15806;53.548;9.964;2023-02-08T21:47:27;0.00;99.90
28614;DHT22;15806;53.548;9.964;2023-02-08T21:49:08;-0.10;99.90
28614;DHT22;15806;53.548;9.964;2023-02-08T21:50:49;-0.10;99.90
28614;DHT22;15806;53.548;9.964;2023-02-08T21:52:29;-0.10;99.90
28614;DHT22;15806;53.548;9.964;2023-02-08T21:54:21;-0.20;99.90
28614;DHT22;15806;53.548;9.964;2023-02-08T21:56:02;-0.20;99.90
28614;DHT22;15806;53.548;9.964;2023-02-08T21:57:42;-0.30;99.90
28614;DHT22;15806;53.548;9.964;2023-02-08T21:59:23;-0.40;99.90
28614;DHT22;15806;53.548;9.964;2023-02-08T22:01:03;-0.40;1.00
28614;DHT22;15806;53.548;9.964;2023-02-08T22:02:44;-0.50;1.00
28614;DHT22;15806;53.548;9.964;2023-02-08T22:04:24;-0.50;1.00
28614;DHT22;15806;53.548;9.964;2023-02-08T22:06:05;-0.50;1.00
28614;DHT22;15806;53.548;9.964;2023-02-08T22:07:49;-0.50;1.00
28614;DHT22;15806;53.548;9.964;2023-02-08T22:09:30;-0.50;1.00
28614;DHT22;15806;53.548;9.964;2023-02-08T22:11:13;-0.50;1.00
28614;DHT22;15806;53.548;9.964;2023-02-08T22:12:54;-0.60;1.00
28614;DHT22;15806;53.548;9.964;2023-02-08T22:14:34;-0.60;93.70
28614;DHT22;15806;53.548;9.964;2023-02-08T22:16:15;-0.60;99.90
28614;DHT22;15806;53.548;9.964;2023-02-08T22:17:58;-0.60;99.90
28614;DHT22;15806;53.548;9.964;2023-02-08T22:19:40;-0.60;99.90
28614;DHT22;15806;53.548;9.964;2023-02-08T22:21:20;-0.60;99.90
28614;DHT22;15806;53.548;9.964;2023-02-08T22:23:01;-0.60;1.00
28614;DHT22;15806;53.548;9.964;2023-02-08T22:24:42;-0.50;1.00
28614;DHT22;15806;53.548;9.964;2023-02-08T22:26:23;-0.60;1.00
28614;DHT22;15806;53.548;9.964;2023-02-08T22:28:03;-0.60;1.00
28614;DHT22;15806;53.548;9.964;2023-02-08T22:29:44;-0.60;1.00
28614;DHT22;15806;53.548;9.964;2023-02-08T22:31:24;-0.60;1.00
28614;DHT22;15806;53.548;9.964;2023-02-08T22:33:05;-0.60;1.00
28614;DHT22;15806;53.548;9.964;2023-02-08T22:34:46;-0.60;1.00
28614;DHT22;15806;53.548;9.964;2023-02-08T22:36:27;-0.70;1.00
28614;DHT22;15806;53.548;9.964;2023-02-08T22:38:07;-0.70;1.00
28614;DHT22;15806;53.548;9.964;2023-02-08T22:39:48;-0.70;99.90
28614;DHT22;15806;53.548;9.964;2023-02-08T22:41:28;-0.70;99.90
28614;DHT22;15806;53.548;9.964;2023-02-08T22:43:09;-0.80;99.90
28614;DHT22;15806;53.548;9.964;2023-02-08T22:44:49;-0.80;99.90
28614;DHT22;15806;53.548;9.964;2023-02-08T22:46:32;-0.80;99.90
28614;DHT22;15806;53.548;9.964;2023-02-08T22:48:13;-0.80;1.00
28614;DHT22;15806;53.548;9.964;2023-02-08T22:49:55;-0.80;1.00
28614;DHT22;15806;53.548;9.964;2023-02-08T22:51:36;-0.80;1.00
28614;DHT22;15806;53.548;9.964;2023-02-08T22:53:16;-0.80;1.00
28614;DHT22;15806;53.548;9.964;2023-02-08T22:54:57;-0.80;1.00
28614;DHT22;15806;53.548;9.964;2023-02-08T22:56:38;-0.80;1.00
28614;DHT22;15806;53.548;9.964;2023-02-08T22:58:18;-0.80;1.00
28614;DHT22;15806;53.548;9.964;2023-02-08T22:59:59;-0.80;1.00
28614;DHT22;15806;53.548;9.964;2023-02-08T23:01:40;-0.80;1.00
28614;DHT22;15806;53.548;9.964;2023-02-08T23:03:20;-0.80;1.00
28614;DHT22;15806;53.548;9.964;2023-02-08T23:05:01;-0.90;1.00
28614;DHT22;15806;53.548;9.964;2023-02-08T23:06:41;-0.90;1.00
28614;DHT22;15806;53.548;9.964;2023-02-08T23:08:22;-0.90;1.00
28614;DHT22;15806;53.548;9.964;2023-02-08T23:10:03;-0.80;99.90
28614;DHT22;15806;53.548;9.964;2023-02-08T23:11:43;-0.80;92.50
28614;DHT22;15806;53.548;9.964;2023-02-08T23:13:27;-0.80;61.80
28614;DHT22;15806;53.548;9.964;2023-02-08T23:15:09;-0.80;1.00
28614;DHT22;15806;53.548;9.964;2023-02-08T23:16:50;-0.80;1.00
28614;DHT22;15806;53.548;9.964;2023-02-08T23:18:30;-0.80;1.00
28614;DHT22;15806;53.548;9.964;2023-02-08T23:20:11;-0.70;1.00
28614;DHT22;15806;53.548;9.964;2023-02-08T23:21:51;-0.70;1.00
28614;DHT22;15806;53.548;9.964;2023-02-08T23:23:32;-0.80;1.00
28614;DHT22;15806;53.548;9.964;2023-02-08T23:25:12;-0.80;1.00
28614;DHT22;15806;53.548;9.964;2023-02-08T23:26:53;-0.80;1.00
28614;DHT22;15806;53.548;9.964;2023-02-08T23:28:34;-0.80;1.00
28614;DHT22;15806;53.548;9.964;2023-02-08T23:30:15;-0.80;1.00
28614;DHT22;15806;53.548;9.964;2023-02-08T23:31:55;-0.80;1.00
28614;DHT22;15806;53.548;9.964;2023-02-08T23:33:37;-0.90;1.00
28614;DHT22;15806;53.548;9.964;2023-02-08T23:35:17;-0.80;99.90
28614;DHT22;15806;53.548;9.964;2023-02-08T23:36:58;-0.90;99.90